Pagrindinis puslapis
METAR-TAF:

METAR-TAF

Oro uostai :

Elk Valley

Sparwood, Britų Kolumbija, Kanada

platuma: 49-45N, ilguma: 114-53W, Aukštis: 1138 m

Dabartinis oras

Ataskaita buvo paskelbta 7 valandos ir 28 minutes, ne 00:00 UTC
Vėjas 9 kt iš Pietų su gūsio iki 17 kt, svyruoja nuo Rytų/Pietryčių ir Vakarų/Pietvakarių
Temperatūra 5°C
Drėgmė 52%
Slėgis 1025 hPa
Matomumas: 32.2 km
Su prošvaistėmis ne aukštis 5000 ft

METAR: CWSW 280000Z 18009G17KT 120V240 20SM BKN050 05/M04 A3027 RMK CU7 LAST STFD OBS/NXT 281400Z SLP296

Laikas: 00:28 (07:28 UTC)


TAF: trūkstamas

Orai ataskaitas ir orų prognozės (METAR, TAF).

turimą stotys yra geltonos ir raudonos taškus žemėlapyje.

Perkelti pele per norėdami pamatyti stoties vardą.

Tada spustelėkite, norėdami matyti oro stebėjimo ir prognozės.

Norėdami pakeisti žemėlapį: spustelėkite ant žalios mygtukų su juodo kryžiaus žemyn,; žalią mygtuką su brūkšneliu, jei norite nutolinti; arba žalių rodyklių gretimoms žemėlapius.


METAR-TAF: